sensor_id;sensor_type;location;lat;lon;timestamp;P1;durP1;ratioP1;P2;durP2;ratioP2
27863;SDS011;15980;51.092;13.916;2023-06-26T00:03:56;12.35;;;8.38;;
27863;SDS011;15980;51.092;13.916;2023-06-26T00:14:01;10.23;;;7.07;;
27863;SDS011;15980;51.092;13.916;2023-06-26T00:24:01;12.95;;;7.05;;
27863;SDS011;15980;51.092;13.916;2023-06-26T00:34:01;15.70;;;8.27;;
27863;SDS011;15980;51.092;13.916;2023-06-26T00:44:02;12.45;;;7.18;;
27863;SDS011;15980;51.092;13.916;2023-06-26T00:54:02;14.10;;;6.97;;
27863;SDS011;15980;51.092;13.916;2023-06-26T01:04:03;15.38;;;7.93;;
27863;SDS011;15980;51.092;13.916;2023-06-26T01:14:04;15.35;;;7.90;;
27863;SDS011;15980;51.092;13.916;2023-06-26T01:24:07;16.33;;;8.63;;
27863;SDS011;15980;51.092;13.916;2023-06-26T01:34:16;11.18;;;7.30;;
27863;SDS011;15980;51.092;13.916;2023-06-26T01:44:21;14.35;;;7.65;;
27863;SDS011;15980;51.092;13.916;2023-06-26T01:54:26;15.98;;;7.82;;
27863;SDS011;15980;51.092;13.916;2023-06-26T02:04:33;17.67;;;7.65;;
27863;SDS011;15980;51.092;13.916;2023-06-26T02:14:33;17.13;;;7.63;;
27863;SDS011;15980;51.092;13.916;2023-06-26T02:24:33;20.95;;;8.65;;
27863;SDS011;15980;51.092;13.916;2023-06-26T02:34:34;15.77;;;8.32;;
27863;SDS011;15980;51.092;13.916;2023-06-26T02:44:35;14.30;;;8.00;;
27863;SDS011;15980;51.092;13.916;2023-06-26T02:54:35;13.45;;;7.80;;
27863;SDS011;15980;51.092;13.916;2023-06-26T03:04:35;15.00;;;8.25;;
27863;SDS011;15980;51.092;13.916;2023-06-26T03:14:35;15.52;;;8.38;;
27863;SDS011;15980;51.092;13.916;2023-06-26T03:24:36;15.43;;;7.82;;
27863;SDS011;15980;51.092;13.916;2023-06-26T03:34:36;15.00;;;7.93;;
27863;SDS011;15980;51.092;13.916;2023-06-26T03:44:36;14.65;;;8.15;;
27863;SDS011;15980;51.092;13.916;2023-06-26T03:54:36;15.45;;;9.18;;
27863;SDS011;15980;51.092;13.916;2023-06-26T04:04:37;15.85;;;8.65;;
27863;SDS011;15980;51.092;13.916;2023-06-26T04:14:37;13.90;;;8.32;;
27863;SDS011;15980;51.092;13.916;2023-06-26T04:24:37;14.63;;;9.07;;
27863;SDS011;15980;51.092;13.916;2023-06-26T04:34:38;12.95;;;7.47;;
27863;SDS011;15980;51.092;13.916;2023-06-26T04:44:38;10.02;;;7.35;;
27863;SDS011;15980;51.092;13.916;2023-06-26T04:54:38;9.15;;;6.60;;
27863;SDS011;15980;51.092;13.916;2023-06-26T05:04:39;10.30;;;6.18;;
27863;SDS011;15980;51.092;13.916;2023-06-26T05:14:39;9.60;;;6.40;;
27863;SDS011;15980;51.092;13.916;2023-06-26T05:24:39;8.98;;;6.53;;
27863;SDS011;15980;51.092;13.916;2023-06-26T05:34:42;10.05;;;5.70;;
27863;SDS011;15980;51.092;13.916;2023-06-26T05:44:42;9.50;;;6.13;;
27863;SDS011;15980;51.092;13.916;2023-06-26T05:54:43;8.52;;;5.20;;
27863;SDS011;15980;51.092;13.916;2023-06-26T06:04:43;10.68;;;5.32;;
27863;SDS011;15980;51.092;13.916;2023-06-26T06:14:43;9.63;;;5.63;;
27863;SDS011;15980;51.092;13.916;2023-06-26T06:24:44;8.23;;;5.05;;
27863;SDS011;15980;51.092;13.916;2023-06-26T06:34:44;7.47;;;4.53;;
27863;SDS011;15980;51.092;13.916;2023-06-26T06:44:44;10.13;;;6.10;;
27863;SDS011;15980;51.092;13.916;2023-06-26T06:54:55;7.10;;;4.50;;
27863;SDS011;15980;51.092;13.916;2023-06-26T07:04:57;9.55;;;4.85;;
27863;SDS011;15980;51.092;13.916;2023-06-26T07:14:57;8.18;;;5.55;;
27863;SDS011;15980;51.092;13.916;2023-06-26T07:24:57;11.70;;;4.70;;
27863;SDS011;15980;51.092;13.916;2023-06-26T07:34:58;7.70;;;4.53;;
27863;SDS011;15980;51.092;13.916;2023-06-26T07:44:58;8.20;;;4.97;;
27863;SDS011;15980;51.092;13.916;2023-06-26T07:54:58;8.07;;;4.78;;
27863;SDS011;15980;51.092;13.916;2023-06-26T08:04:59;5.80;;;4.35;;
27863;SDS011;15980;51.092;13.916;2023-06-26T08:14:59;7.50;;;4.80;;
27863;SDS011;15980;51.092;13.916;2023-06-26T08:24:59;8.52;;;4.95;;
27863;SDS011;15980;51.092;13.916;2023-06-26T08:35:00;6.28;;;4.60;;
27863;SDS011;15980;51.092;13.916;2023-06-26T08:45:00;10.10;;;4.72;;
27863;SDS011;15980;51.092;13.916;2023-06-26T08:55:01;11.10;;;4.47;;
27863;SDS011;15980;51.092;13.916;2023-06-26T09:05:06;6.32;;;4.97;;
27863;SDS011;15980;51.092;13.916;2023-06-26T09:15:07;8.07;;;4.80;;
27863;SDS011;15980;51.092;13.916;2023-06-26T09:25:07;6.88;;;4.85;;
27863;SDS011;15980;51.092;13.916;2023-06-26T09:35:09;6.75;;;4.90;;
27863;SDS011;15980;51.092;13.916;2023-06-26T09:45:17;5.72;;;4.90;;
27863;SDS011;15980;51.092;13.916;2023-06-26T09:55:19;7.43;;;5.10;;
27863;SDS011;15980;51.092;13.916;2023-06-26T10:05:19;6.30;;;4.93;;
27863;SDS011;15980;51.092;13.916;2023-06-26T10:15:20;6.32;;;4.97;;
27863;SDS011;15980;51.092;13.916;2023-06-26T10:25:23;6.85;;;5.20;;
27863;SDS011;15980;51.092;13.916;2023-06-26T10:35:25;8.32;;;5.25;;
27863;SDS011;15980;51.092;13.916;2023-06-26T10:45:28;10.63;;;5.13;;
27863;SDS011;15980;51.092;13.916;2023-06-26T10:55:28;6.35;;;4.60;;
27863;SDS011;15980;51.092;13.916;2023-06-26T11:05:29;5.97;;;4.47;;
27863;SDS011;15980;51.092;13.916;2023-06-26T11:15:33;8.07;;;5.10;;
27863;SDS011;15980;51.092;13.916;2023-06-26T11:25:36;7.15;;;4.82;;
27863;SDS011;15980;51.092;13.916;2023-06-26T11:35:37;6.07;;;4.43;;
27863;SDS011;15980;51.092;13.916;2023-06-26T11:45:38;7.37;;;4.70;;
27863;SDS011;15980;51.092;13.916;2023-06-26T11:55:42;8.30;;;4.60;;
27863;SDS011;15980;51.092;13.916;2023-06-26T12:05:42;10.07;;;5.00;;
27863;SDS011;15980;51.092;13.916;2023-06-26T12:15:43;6.00;;;4.32;;
27863;SDS011;15980;51.092;13.916;2023-06-26T12:25:43;7.85;;;4.32;;
27863;SDS011;15980;51.092;13.916;2023-06-26T12:35:45;5.57;;;3.92;;
27863;SDS011;15980;51.092;13.916;2023-06-26T12:45:45;7.32;;;4.65;;
27863;SDS011;15980;51.092;13.916;2023-06-26T12:55:45;5.25;;;4.25;;
27863;SDS011;15980;51.092;13.916;2023-06-26T13:05:46;7.43;;;4.25;;
27863;SDS011;15980;51.092;13.916;2023-06-26T13:15:46;7.85;;;4.88;;
27863;SDS011;15980;51.092;13.916;2023-06-26T13:25:46;5.82;;;4.50;;
27863;SDS011;15980;51.092;13.916;2023-06-26T13:35:47;5.90;;;4.75;;
27863;SDS011;15980;51.092;13.916;2023-06-26T13:45:47;9.07;;;4.85;;
27863;SDS011;15980;51.092;13.916;2023-06-26T13:55:48;5.43;;;4.28;;
27863;SDS011;15980;51.092;13.916;2023-06-26T14:05:49;5.95;;;4.50;;
27863;SDS011;15980;51.092;13.916;2023-06-26T14:15:49;7.30;;;5.05;;
27863;SDS011;15980;51.092;13.916;2023-06-26T14:25:50;5.50;;;4.70;;
27863;SDS011;15980;51.092;13.916;2023-06-26T14:35:50;5.85;;;4.60;;
27863;SDS011;15980;51.092;13.916;2023-06-26T14:45:50;6.10;;;4.32;;
27863;SDS011;15980;51.092;13.916;2023-06-26T14:55:51;7.63;;;4.90;;
27863;SDS011;15980;51.092;13.916;2023-06-26T15:05:51;6.15;;;4.85;;
27863;SDS011;15980;51.092;13.916;2023-06-26T15:15:51;6.75;;;4.50;;
27863;SDS011;15980;51.092;13.916;2023-06-26T15:25:51;8.63;;;5.78;;
27863;SDS011;15980;51.092;13.916;2023-06-26T15:35:52;8.15;;;5.55;;
27863;SDS011;15980;51.092;13.916;2023-06-26T15:45:52;6.80;;;5.03;;
27863;SDS011;15980;51.092;13.916;2023-06-26T15:55:52;7.07;;;4.90;;
27863;SDS011;15980;51.092;13.916;2023-06-26T16:05:53;8.48;;;5.38;;
27863;SDS011;15980;51.092;13.916;2023-06-26T16:15:53;7.47;;;5.05;;
27863;SDS011;15980;51.092;13.916;2023-06-26T16:25:53;18.50;;;5.45;;
27863;SDS011;15980;51.092;13.916;2023-06-26T16:35:53;29.97;;;6.23;;
27863;SDS011;15980;51.092;13.916;2023-06-26T16:45:54;21.08;;;10.23;;
27863;SDS011;15980;51.092;13.916;2023-06-26T16:55:54;25.58;;;13.35;;
27863;SDS011;15980;51.092;13.916;2023-06-26T17:05:54;16.58;;;10.32;;
27863;SDS011;15980;51.092;13.916;2023-06-26T17:15:55;24.55;;;11.25;;
27863;SDS011;15980;51.092;13.916;2023-06-26T17:25:55;19.73;;;11.93;;
27863;SDS011;15980;51.092;13.916;2023-06-26T17:35:55;23.20;;;14.88;;
27863;SDS011;15980;51.092;13.916;2023-06-26T17:45:55;25.10;;;16.67;;
27863;SDS011;15980;51.092;13.916;2023-06-26T17:55:56;22.95;;;17.33;;
27863;SDS011;15980;51.092;13.916;2023-06-26T18:05:56;21.23;;;14.77;;
27863;SDS011;15980;51.092;13.916;2023-06-26T18:15:56;16.65;;;11.95;;
27863;SDS011;15980;51.092;13.916;2023-06-26T18:25:57;16.40;;;12.07;;
27863;SDS011;15980;51.092;13.916;2023-06-26T18:35:57;23.88;;;14.25;;
27863;SDS011;15980;51.092;13.916;2023-06-26T18:45:58;27.23;;;15.25;;
27863;SDS011;15980;51.092;13.916;2023-06-26T18:55:58;21.90;;;14.90;;
27863;SDS011;15980;51.092;13.916;2023-06-26T19:05:58;28.27;;;16.38;;
27863;SDS011;15980;51.092;13.916;2023-06-26T19:15:59;21.98;;;14.07;;
27863;SDS011;15980;51.092;13.916;2023-06-26T19:25:59;22.45;;;14.93;;
27863;SDS011;15980;51.092;13.916;2023-06-26T19:35:59;15.02;;;8.95;;
27863;SDS011;15980;51.092;13.916;2023-06-26T19:46:00;0.13;;;0.13;;
27863;SDS011;15980;51.092;13.916;2023-06-26T19:56:00;0.52;;;0.52;;
27863;SDS011;15980;51.092;13.916;2023-06-26T20:06:00;0.00;;;0.00;;
27863;SDS011;15980;51.092;13.916;2023-06-26T20:16:00;0.10;;;0.10;;
27863;SDS011;15980;51.092;13.916;2023-06-26T20:26:01;0.68;;;0.68;;
27863;SDS011;15980;51.092;13.916;2023-06-26T20:36:01;0.13;;;0.13;;
27863;SDS011;15980;51.092;13.916;2023-06-26T20:46:01;0.00;;;0.00;;
27863;SDS011;15980;51.092;13.916;2023-06-26T20:56:02;0.22;;;0.22;;
27863;SDS011;15980;51.092;13.916;2023-06-26T21:06:02;0.45;;;0.45;;
27863;SDS011;15980;51.092;13.916;2023-06-26T21:16:04;0.00;;;0.00;;
27863;SDS011;15980;51.092;13.916;2023-06-26T21:26:04;0.20;;;0.20;;
27863;SDS011;15980;51.092;13.916;2023-06-26T21:36:05;0.00;;;0.00;;
27863;SDS011;15980;51.092;13.916;2023-06-26T21:46:05;0.00;;;0.00;;
27863;SDS011;15980;51.092;13.916;2023-06-26T21:56:05;0.00;;;0.00;;
27863;SDS011;15980;51.092;13.916;2023-06-26T22:06:06;0.00;;;0.00;;
27863;SDS011;15980;51.092;13.916;2023-06-26T22:16:06;0.80;;;0.75;;
27863;SDS011;15980;51.092;13.916;2023-06-26T22:26:06;0.30;;;0.30;;
27863;SDS011;15980;51.092;13.916;2023-06-26T22:36:07;0.00;;;0.00;;
27863;SDS011;15980;51.092;13.916;2023-06-26T22:46:07;0.03;;;0.03;;
27863;SDS011;15980;51.092;13.916;2023-06-26T22:56:07;0.13;;;0.13;;
27863;SDS011;15980;51.092;13.916;2023-06-26T23:06:08;7.30;;;3.05;;
27863;SDS011;15980;51.092;13.916;2023-06-26T23:16:08;11.73;;;7.10;;
27863;SDS011;15980;51.092;13.916;2023-06-26T23:26:09;0.45;;;0.45;;
27863;SDS011;15980;51.092;13.916;2023-06-26T23:36:09;1.67;;;1.02;;
27863;SDS011;15980;51.092;13.916;2023-06-26T23:46:09;0.00;;;0.00;;
27863;SDS011;15980;51.092;13.916;2023-06-26T23:56:09;0.00;;;0.00;;
